createdAt,value
2023-03-19T00:00:38.641Z,11.47
2023-03-19T00:03:07.110Z,13.60
2023-03-19T00:05:35.803Z,11.20
2023-03-19T00:08:04.532Z,13.23
2023-03-19T00:10:32.999Z,12.00
2023-03-19T00:13:01.645Z,13.40
2023-03-19T00:15:30.103Z,11.70
2023-03-19T00:17:59.938Z,14.03
2023-03-19T00:20:28.626Z,10.93
2023-03-19T00:22:57.213Z,12.30
2023-03-19T00:25:25.795Z,11.87
2023-03-19T00:27:55.106Z,11.23
2023-03-19T00:30:24.190Z,12.33
2023-03-19T00:32:52.903Z,11.80
2023-03-19T00:35:22.788Z,10.73
2023-03-19T00:37:51.461Z,11.47
2023-03-19T00:40:20.091Z,11.27
2023-03-19T00:42:48.745Z,11.00
2023-03-19T00:45:17.428Z,12.07
2023-03-19T00:47:46.086Z,12.00
2023-03-19T00:50:14.588Z,15.37
2023-03-19T00:52:44.469Z,11.07
2023-03-19T00:55:13.036Z,11.10
2023-03-19T00:57:41.450Z,11.33
2023-03-19T01:00:11.222Z,12.43
2023-03-19T01:02:39.701Z,10.67
2023-03-19T01:05:09.603Z,10.87
2023-03-19T01:07:38.088Z,11.23
2023-03-19T01:10:09.705Z,12.53
2023-03-19T01:12:38.303Z,11.10
2023-03-19T01:15:08.762Z,10.33
2023-03-19T01:17:37.465Z,11.03
2023-03-19T01:20:09.017Z,11.33
2023-03-19T01:22:37.747Z,9.60
2023-03-19T01:25:08.702Z,11.90
2023-03-19T01:27:37.376Z,12.93
2023-03-19T01:30:07.529Z,9.73
2023-03-19T01:32:36.164Z,12.00
2023-03-19T01:35:04.872Z,11.30
2023-03-19T01:37:33.796Z,10.97
2023-03-19T01:40:02.277Z,12.27
2023-03-19T01:42:32.226Z,11.47
2023-03-19T01:45:00.830Z,10.90
2023-03-19T01:47:32.249Z,11.77
2023-03-19T01:50:00.893Z,11.03
2023-03-19T01:52:33.763Z,11.63
2023-03-19T01:55:05.290Z,10.73
2023-03-19T01:57:35.182Z,11.67
2023-03-19T02:00:05.461Z,10.97
2023-03-19T02:02:35.818Z,10.33
2023-03-19T02:05:07.912Z,12.03
2023-03-19T02:07:37.495Z,11.33
2023-03-19T02:10:08.217Z,10.77
2023-03-19T02:12:38.527Z,11.33
2023-03-19T02:15:08.303Z,10.07
2023-03-19T02:17:36.838Z,10.73
2023-03-19T02:20:09.812Z,11.20
2023-03-19T02:22:41.033Z,9.87
2023-03-19T02:25:14.803Z,10.13
2023-03-19T02:27:45.088Z,11.60
2023-03-19T02:30:21.560Z,10.83
2023-03-19T02:32:50.044Z,12.43
2023-03-19T02:35:18.644Z,10.20
2023-03-19T02:37:47.104Z,9.30
2023-03-19T02:40:20.117Z,10.40
2023-03-19T02:42:49.894Z,9.57
2023-03-19T02:45:18.519Z,9.83
2023-03-19T02:47:46.916Z,11.20
2023-03-19T02:50:15.565Z,10.30
2023-03-19T02:52:43.994Z,11.10
2023-03-19T02:55:12.568Z,9.17
2023-03-19T02:57:44.382Z,12.10
2023-03-19T03:00:18.804Z,10.43
2023-03-19T03:02:47.367Z,9.40
2023-03-19T03:05:15.909Z,9.53
2023-03-19T03:07:45.000Z,10.10
2023-03-19T03:10:13.953Z,10.23
2023-03-19T03:12:42.366Z,9.97
2023-03-19T03:15:11.222Z,9.83
2023-03-19T03:17:41.884Z,9.23
2023-03-19T03:20:12.745Z,9.63
2023-03-19T03:22:42.141Z,12.67
2023-03-19T03:25:11.512Z,12.20
2023-03-19T03:27:40.455Z,10.30
2023-03-19T03:30:10.732Z,9.80
2023-03-19T03:32:40.956Z,9.80
2023-03-19T03:35:10.278Z,9.10
2023-03-19T03:37:39.704Z,9.03
2023-03-19T03:40:09.554Z,11.13
2023-03-19T03:42:38.284Z,10.97
2023-03-19T03:45:07.547Z,9.33
2023-03-19T03:47:35.998Z,12.00
2023-03-19T03:50:07.228Z,9.40
2023-03-19T03:52:35.899Z,8.93
2023-03-19T03:55:04.917Z,8.73
2023-03-19T03:57:33.347Z,10.33
2023-03-19T04:00:01.844Z,9.37
2023-03-19T04:02:30.839Z,10.40
2023-03-19T04:04:59.349Z,11.07
2023-03-19T04:07:29.231Z,10.90
2023-03-19T04:09:58.684Z,11.73
2023-03-19T04:12:27.413Z,10.93
2023-03-19T04:14:55.844Z,10.43
2023-03-19T04:17:24.408Z,11.13
2023-03-19T04:19:52.822Z,9.50
2023-03-19T04:22:21.312Z,11.60
2023-03-19T04:24:51.248Z,10.67
2023-03-19T04:27:19.697Z,10.93
2023-03-19T04:29:48.156Z,10.03
2023-03-19T04:32:16.771Z,9.67
2023-03-19T04:34:45.301Z,10.57
2023-03-19T04:37:13.798Z,11.27
2023-03-19T04:39:42.208Z,11.93
2023-03-19T04:42:12.543Z,11.10
2023-03-19T04:44:41.001Z,10.27
2023-03-19T04:47:10.299Z,9.97
2023-03-19T04:49:39.034Z,9.47
2023-03-19T04:52:07.749Z,11.73
2023-03-19T04:54:36.239Z,8.83
2023-03-19T04:57:04.680Z,9.80
2023-03-19T04:59:34.597Z,9.50
2023-03-19T05:02:03.146Z,12.13
2023-03-19T05:04:31.633Z,9.97
2023-03-19T05:07:00.114Z,12.00
2023-03-19T05:09:28.915Z,10.23
2023-03-19T05:11:57.347Z,11.57
2023-03-19T05:14:25.892Z,10.13
2023-03-19T05:16:55.792Z,10.10
2023-03-19T05:19:25.206Z,14.43
2023-03-19T05:21:53.621Z,13.37
2023-03-19T05:24:22.257Z,12.07
2023-03-19T05:26:50.740Z,10.87
2023-03-19T05:29:19.206Z,11.73
2023-03-19T05:31:48.138Z,11.70
2023-03-19T05:34:18.075Z,10.83
2023-03-19T05:36:46.530Z,12.80
2023-03-19T05:39:14.950Z,12.00
2023-03-19T05:41:43.396Z,13.67
2023-03-19T05:44:11.953Z,10.73
2023-03-19T05:46:41.697Z,11.97
2023-03-19T05:49:10.576Z,12.07
2023-03-19T05:51:40.382Z,10.20
2023-03-19T05:54:08.959Z,27.50
2023-03-19T05:56:37.750Z,17.13
2023-03-19T05:59:06.653Z,14.57
2023-03-19T06:01:35.647Z,11.63
2023-03-19T06:04:06.138Z,10.70
2023-03-19T06:06:34.862Z,11.40
2023-03-19T06:09:05.298Z,9.80
2023-03-19T06:11:33.782Z,10.90
2023-03-19T06:14:02.207Z,11.57
2023-03-19T06:16:30.745Z,35.27
2023-03-19T06:18:59.261Z,37.43
2023-03-19T06:21:29.777Z,19.80
2023-03-19T06:23:58.498Z,12.83
2023-03-19T06:26:28.594Z,13.00
2023-03-19T06:28:57.478Z,11.23
2023-03-19T06:31:26.044Z,12.63
2023-03-19T06:33:54.739Z,12.57
2023-03-19T06:36:23.338Z,12.80
2023-03-19T06:38:51.961Z,10.30
2023-03-19T06:41:21.272Z,28.33
2023-03-19T06:43:51.246Z,22.90
2023-03-19T06:46:19.802Z,13.40
2023-03-19T06:48:48.453Z,11.97
2023-03-19T06:51:17.037Z,11.97
2023-03-19T06:53:45.514Z,13.10
2023-03-19T06:56:13.999Z,12.87
2023-03-19T06:58:42.559Z,15.30
2023-03-19T07:01:12.621Z,18.23
2023-03-19T07:03:41.104Z,13.87
2023-03-19T07:06:09.593Z,13.17
2023-03-19T07:08:38.091Z,25.23
2023-03-19T07:11:07.610Z,14.47
2023-03-19T07:13:38.037Z,15.10
2023-03-19T07:16:07.266Z,13.30
2023-03-19T07:18:37.184Z,12.17
2023-03-19T07:21:06.127Z,11.00
2023-03-19T07:23:34.544Z,11.20
2023-03-19T07:26:03.532Z,10.73
2023-03-19T07:28:32.046Z,12.90
2023-03-19T07:31:00.577Z,11.03
2023-03-19T07:33:29.058Z,16.13
2023-03-19T07:35:58.938Z,11.97
2023-03-19T07:38:27.622Z,13.73
2023-03-19T07:41:02.306Z,23.63
2023-03-19T07:43:31.382Z,13.30
2023-03-19T07:46:00.832Z,11.60
2023-03-19T07:48:29.271Z,11.77
2023-03-19T07:50:59.263Z,12.43
2023-03-19T07:53:27.832Z,11.93
2023-03-19T07:55:56.468Z,12.50
2023-03-19T07:58:27.068Z,10.97
2023-03-19T08:00:56.051Z,21.43
2023-03-19T08:03:24.559Z,38.97
2023-03-19T08:05:53.872Z,14.93
2023-03-19T08:08:23.707Z,14.60
2023-03-19T08:10:54.970Z,11.40
2023-03-19T08:13:23.705Z,11.27
2023-03-19T08:15:53.509Z,11.80
2023-03-19T08:18:22.082Z,12.80
2023-03-19T08:20:50.879Z,12.50
2023-03-19T08:23:19.604Z,12.27
2023-03-19T08:25:51.782Z,11.20
2023-03-19T08:28:20.636Z,11.97
2023-03-19T08:30:49.253Z,10.77
2023-03-19T08:33:17.911Z,16.00
2023-03-19T08:35:46.609Z,12.70
2023-03-19T08:38:15.412Z,13.67
2023-03-19T08:40:43.904Z,12.90
2023-03-19T08:43:13.717Z,15.97
2023-03-19T08:45:42.445Z,13.00
2023-03-19T08:48:10.875Z,10.93
2023-03-19T08:50:39.419Z,12.93
2023-03-19T08:53:07.985Z,12.03
2023-03-19T08:55:36.489Z,11.97
2023-03-19T08:58:04.930Z,10.83
2023-03-19T09:00:35.120Z,12.30
2023-03-19T09:03:03.767Z,15.67
2023-03-19T09:05:32.311Z,13.63
2023-03-19T09:08:00.857Z,13.90
2023-03-19T09:10:29.472Z,13.53
2023-03-19T09:12:58.481Z,12.77
2023-03-19T09:15:27.071Z,13.07
2023-03-19T09:17:57.110Z,13.73
2023-03-19T09:20:25.827Z,17.80
2023-03-19T09:22:54.225Z,15.17
2023-03-19T09:25:22.726Z,13.33
2023-03-19T09:27:51.188Z,12.20
2023-03-19T09:30:19.860Z,13.97
2023-03-19T09:32:48.437Z,13.80
2023-03-19T09:35:18.430Z,12.00
2023-03-19T09:37:46.996Z,11.73
2023-03-19T09:40:23.150Z,14.87
2023-03-19T09:43:00.875Z,17.57
2023-03-19T09:45:30.603Z,20.47
2023-03-19T09:48:04.290Z,14.57
2023-03-19T09:50:36.505Z,13.73
2023-03-19T09:53:09.318Z,12.87
2023-03-19T09:55:42.731Z,13.33
2023-03-19T09:58:15.740Z,13.73
2023-03-19T10:00:45.759Z,13.73
2023-03-19T10:03:26.928Z,11.97
2023-03-19T10:06:03.220Z,13.53
2023-03-19T10:08:39.794Z,13.63
2023-03-19T10:11:20.968Z,13.10
2023-03-19T10:13:58.441Z,12.27
2023-03-19T10:16:29.224Z,12.83
2023-03-19T10:19:00.483Z,14.50
2023-03-19T10:21:34.324Z,11.27
2023-03-19T10:24:05.058Z,11.37
2023-03-19T10:26:35.835Z,13.47
2023-03-19T10:29:08.233Z,11.20
2023-03-19T10:31:47.238Z,12.90
2023-03-19T10:34:31.438Z,10.40
2023-03-19T10:37:03.899Z,12.57
2023-03-19T10:39:34.255Z,12.10
2023-03-19T10:42:13.830Z,11.13
2023-03-19T10:44:48.475Z,11.63
2023-03-19T10:47:19.249Z,12.27
2023-03-19T10:49:47.991Z,11.33
2023-03-19T10:52:30.648Z,10.90
2023-03-19T10:55:04.608Z,10.47
2023-03-19T10:57:33.172Z,10.17
2023-03-19T11:00:04.841Z,11.57
2023-03-19T11:02:33.599Z,10.43
2023-03-19T11:05:10.297Z,10.20
2023-03-19T11:07:40.612Z,10.77
2023-03-19T11:10:14.715Z,11.20
2023-03-19T11:12:43.564Z,13.00
2023-03-19T11:15:21.594Z,12.57
2023-03-19T11:17:51.918Z,12.13
2023-03-19T11:20:26.400Z,12.87
2023-03-19T11:22:57.515Z,12.80
2023-03-19T11:25:28.654Z,13.03
2023-03-19T11:28:02.147Z,12.17
2023-03-19T11:30:38.983Z,14.97
2023-03-19T11:33:17.697Z,13.20
2023-03-19T11:35:50.670Z,11.93
2023-03-19T11:38:26.403Z,12.20
2023-03-19T11:41:02.175Z,12.63
2023-03-19T11:43:48.246Z,13.00
2023-03-19T11:46:25.049Z,12.20
2023-03-19T11:49:09.411Z,13.53
2023-03-19T11:51:41.806Z,12.33
2023-03-19T11:54:22.250Z,11.50
2023-03-19T11:56:56.782Z,14.73
2023-03-19T11:59:44.625Z,12.53
2023-03-19T12:02:30.538Z,11.67
2023-03-19T12:05:13.904Z,11.03
2023-03-19T12:07:47.537Z,11.27
2023-03-19T12:10:30.191Z,11.60
2023-03-19T12:13:08.444Z,14.30
2023-03-19T12:15:41.229Z,11.30
2023-03-19T12:18:18.628Z,12.50
2023-03-19T12:20:55.479Z,12.27
2023-03-19T12:23:35.920Z,12.40
2023-03-19T12:26:08.786Z,13.63
2023-03-19T12:28:40.660Z,12.27
2023-03-19T12:31:36.912Z,14.27
2023-03-19T12:34:20.846Z,12.43
2023-03-19T12:36:54.057Z,13.67
2023-03-19T12:39:25.562Z,12.63
2023-03-19T12:41:58.358Z,12.50
2023-03-19T12:44:31.219Z,12.83
2023-03-19T12:47:03.817Z,13.43
2023-03-19T12:49:37.287Z,12.87
2023-03-19T12:52:13.681Z,12.43
2023-03-19T12:54:44.770Z,12.57
2023-03-19T12:57:19.575Z,11.57
2023-03-19T12:59:51.769Z,12.00
2023-03-19T13:02:26.620Z,12.67
2023-03-19T13:04:58.062Z,11.83
2023-03-19T13:07:32.223Z,12.67
2023-03-19T13:10:05.148Z,11.07
2023-03-19T13:12:38.231Z,11.93
2023-03-19T13:15:10.764Z,12.43
2023-03-19T13:17:43.500Z,17.27
2023-03-19T13:20:20.160Z,14.07
2023-03-19T13:22:54.483Z,12.37
2023-03-19T13:25:25.518Z,13.10
2023-03-19T13:27:56.378Z,11.77
2023-03-19T13:30:26.276Z,12.57
2023-03-19T13:33:02.904Z,15.83
2023-03-19T13:35:40.663Z,12.23
2023-03-19T13:38:19.620Z,12.30
2023-03-19T13:40:50.650Z,12.40
2023-03-19T13:43:43.753Z,14.23
2023-03-19T13:46:37.521Z,14.47
2023-03-19T13:49:27.335Z,13.00
2023-03-19T13:51:58.384Z,11.93
2023-03-19T13:54:40.103Z,13.03
2023-03-19T13:57:34.069Z,13.33
2023-03-19T14:00:51.163Z,13.33
2023-03-19T14:03:21.884Z,11.73
2023-03-19T14:05:52.343Z,12.77
2023-03-19T14:08:22.488Z,11.73
2023-03-19T14:10:52.964Z,12.63
2023-03-19T14:13:31.962Z,15.27
2023-03-19T14:16:08.974Z,14.90
2023-03-19T14:18:42.377Z,11.37
2023-03-19T14:21:13.204Z,11.50
2023-03-19T14:23:46.324Z,12.77
2023-03-19T14:26:20.725Z,12.33
2023-03-19T14:28:58.987Z,11.50
2023-03-19T14:31:35.262Z,10.93
2023-03-19T14:34:08.533Z,10.70
2023-03-19T14:36:38.297Z,10.87
2023-03-19T14:39:10.643Z,12.90
2023-03-19T14:41:43.659Z,11.50
2023-03-19T14:44:51.150Z,13.40
2023-03-19T14:47:31.546Z,12.90
2023-03-19T14:50:35.652Z,14.07
2023-03-19T14:53:06.887Z,11.40
2023-03-19T14:55:38.028Z,12.83
2023-03-19T14:58:06.910Z,16.53
2023-03-19T15:00:44.637Z,16.17
2023-03-19T15:03:23.327Z,14.13
2023-03-19T15:05:57.952Z,24.30
2023-03-19T15:08:26.752Z,14.57
2023-03-19T15:11:09.264Z,11.47
2023-03-19T15:13:45.527Z,12.97
2023-03-19T15:16:28.718Z,12.90
2023-03-19T15:18:58.676Z,12.17
2023-03-19T15:21:27.846Z,11.07
2023-03-19T15:23:56.365Z,11.87
2023-03-19T15:26:32.441Z,13.83
2023-03-19T15:29:01.108Z,13.70
2023-03-19T15:31:52.351Z,12.30
2023-03-19T15:34:32.029Z,12.47
2023-03-19T15:37:02.580Z,11.53
2023-03-19T15:39:33.538Z,13.13
2023-03-19T15:42:02.367Z,12.77
2023-03-19T15:44:34.761Z,12.77
2023-03-19T15:47:04.982Z,11.87
2023-03-19T15:49:38.244Z,10.93
2023-03-19T15:52:09.391Z,12.83
2023-03-19T15:54:37.884Z,10.90
2023-03-19T15:57:07.686Z,12.67
2023-03-19T15:59:36.303Z,10.70
2023-03-19T16:02:12.258Z,11.40
2023-03-19T16:05:10.481Z,10.80
2023-03-19T16:07:42.755Z,8.57
2023-03-19T16:10:38.323Z,10.83
2023-03-19T16:13:28.720Z,9.47
2023-03-19T16:16:02.360Z,9.53
2023-03-19T16:18:32.662Z,9.40
2023-03-19T16:21:09.275Z,12.83
2023-03-19T16:23:38.957Z,16.03
2023-03-19T16:26:17.926Z,20.20
2023-03-19T16:28:50.489Z,17.43
2023-03-19T16:31:24.827Z,17.23
2023-03-19T16:33:53.905Z,15.27
2023-03-19T16:36:25.184Z,14.27
2023-03-19T16:38:58.997Z,13.23
2023-03-19T16:41:33.783Z,18.77
2023-03-19T16:44:16.787Z,15.30
2023-03-19T16:46:45.765Z,13.80
2023-03-19T16:49:14.280Z,16.13
2023-03-19T16:51:44.369Z,16.90
2023-03-19T16:54:14.596Z,19.67
2023-03-19T16:56:43.254Z,15.07
2023-03-19T16:59:14.597Z,13.43
2023-03-19T17:01:43.113Z,17.53
2023-03-19T17:04:17.517Z,19.97
2023-03-19T17:06:47.549Z,26.40
2023-03-19T17:09:16.551Z,30.53
2023-03-19T17:11:45.441Z,22.73
2023-03-19T17:14:17.838Z,22.00
2023-03-19T17:16:50.664Z,28.50
2023-03-19T17:19:22.032Z,42.60
2023-03-19T17:21:53.507Z,32.17
2023-03-19T17:24:24.824Z,23.20
2023-03-19T17:26:53.834Z,23.20
2023-03-19T17:29:24.848Z,24.93
2023-03-19T17:31:53.833Z,16.97
2023-03-19T17:34:25.325Z,15.63
2023-03-19T17:36:57.071Z,18.87
2023-03-19T17:39:26.626Z,32.20
2023-03-19T17:41:55.065Z,26.93
2023-03-19T17:44:23.728Z,26.37
2023-03-19T17:46:54.399Z,25.17
2023-03-19T17:49:25.078Z,24.47
2023-03-19T17:51:55.043Z,18.57
2023-03-19T17:54:25.836Z,20.87
2023-03-19T17:56:54.499Z,24.37
2023-03-19T17:59:23.466Z,25.93
2023-03-19T18:01:52.317Z,25.00
2023-03-19T18:04:22.415Z,20.30
2023-03-19T18:06:54.785Z,18.37
2023-03-19T18:09:24.777Z,31.13
2023-03-19T18:11:53.318Z,39.20
2023-03-19T18:14:21.813Z,22.03
2023-03-19T18:16:50.404Z,19.07
2023-03-19T18:19:22.067Z,14.73
2023-03-19T18:21:50.503Z,19.03
2023-03-19T18:24:20.301Z,15.63
2023-03-19T18:26:48.779Z,18.37
2023-03-19T18:29:17.393Z,21.27
2023-03-19T18:31:47.110Z,32.20
2023-03-19T18:34:16.887Z,32.43
2023-03-19T18:36:45.590Z,29.43
2023-03-19T18:39:16.131Z,27.97
2023-03-19T18:41:46.068Z,29.10
2023-03-19T18:44:14.469Z,33.03
2023-03-19T18:46:43.310Z,36.83
2023-03-19T18:49:20.906Z,36.93
2023-03-19T18:52:01.641Z,36.33
2023-03-19T18:54:32.000Z,29.33
2023-03-19T18:57:02.621Z,24.10
2023-03-19T18:59:33.189Z,29.07
2023-03-19T19:02:03.433Z,32.93
2023-03-19T19:04:32.331Z,32.33
2023-03-19T19:07:01.737Z,32.97
2023-03-19T19:09:30.429Z,25.97
2023-03-19T19:12:02.053Z,24.10
2023-03-19T19:14:30.895Z,19.87
2023-03-19T19:16:59.747Z,37.27
2023-03-19T19:19:28.807Z,21.90
2023-03-19T19:21:57.260Z,20.00
2023-03-19T19:24:25.768Z,17.70
2023-03-19T19:26:54.490Z,18.67
2023-03-19T19:29:26.762Z,22.47
2023-03-19T19:31:55.588Z,53.17
2023-03-19T19:34:24.474Z,43.23
2023-03-19T19:36:55.485Z,35.70
2023-03-19T19:39:24.011Z,26.70
2023-03-19T19:41:54.019Z,27.73
2023-03-19T19:44:24.893Z,28.17
2023-03-19T19:46:54.617Z,23.20
2023-03-19T19:49:24.782Z,30.07
2023-03-19T19:51:53.202Z,28.40
2023-03-19T19:54:22.813Z,30.63
2023-03-19T19:56:52.197Z,25.40
2023-03-19T19:59:21.046Z,22.70
2023-03-19T20:01:50.928Z,20.70
2023-03-19T20:04:21.233Z,21.73
2023-03-19T20:06:51.276Z,25.70
2023-03-19T20:09:19.865Z,22.70
2023-03-19T20:11:48.499Z,26.13
2023-03-19T20:14:17.052Z,61.87
2023-03-19T20:16:45.545Z,39.40
2023-03-19T20:19:20.116Z,28.00
2023-03-19T20:21:48.654Z,27.07
2023-03-19T20:24:17.086Z,25.50
2023-03-19T20:26:45.669Z,18.00
2023-03-19T20:29:16.040Z,18.90
2023-03-19T20:31:46.120Z,16.33
2023-03-19T20:34:32.498Z,14.43
2023-03-19T20:37:05.278Z,15.37
2023-03-19T20:39:33.806Z,16.17
2023-03-19T20:42:02.369Z,17.50
2023-03-19T20:44:30.958Z,16.30
2023-03-19T20:46:59.433Z,17.80
2023-03-19T20:49:30.911Z,18.17
2023-03-19T20:51:59.497Z,19.77
2023-03-19T20:54:27.965Z,14.03
2023-03-19T20:56:56.465Z,16.73
2023-03-19T20:59:26.869Z,15.43
2023-03-19T21:01:56.467Z,15.43
2023-03-19T21:04:24.968Z,31.93
2023-03-19T21:06:54.819Z,32.10
2023-03-19T21:09:24.340Z,18.90
2023-03-19T21:11:53.258Z,17.93
2023-03-19T21:14:23.440Z,17.37
2023-03-19T21:16:51.963Z,16.07
2023-03-19T21:19:20.406Z,13.87
2023-03-19T21:21:49.324Z,16.53
2023-03-19T21:24:20.884Z,12.53
2023-03-19T21:26:50.060Z,14.30
2023-03-19T21:29:22.880Z,16.03
2023-03-19T21:31:54.171Z,13.97
2023-03-19T21:34:22.617Z,12.63
2023-03-19T21:36:51.064Z,10.73
2023-03-19T21:39:21.968Z,11.70
2023-03-19T21:41:50.505Z,11.13
2023-03-19T21:44:21.719Z,12.77
2023-03-19T21:46:50.648Z,11.03
2023-03-19T21:49:19.116Z,11.87
2023-03-19T21:51:47.841Z,11.10
2023-03-19T21:54:16.294Z,11.50
2023-03-19T21:56:47.067Z,11.50
2023-03-19T21:59:16.586Z,11.47
2023-03-19T22:01:45.018Z,20.67
2023-03-19T22:04:13.566Z,14.73
2023-03-19T22:06:43.144Z,13.97
2023-03-19T22:09:11.747Z,13.03
2023-03-19T22:11:41.871Z,12.43
2023-03-19T22:14:17.796Z,11.73
2023-03-19T22:16:46.488Z,11.67
2023-03-19T22:19:15.619Z,14.47
2023-03-19T22:21:44.057Z,13.77
2023-03-19T22:24:12.738Z,13.13
2023-03-19T22:26:42.873Z,14.33
2023-03-19T22:29:18.703Z,14.47
2023-03-19T22:31:49.495Z,12.13
2023-03-19T22:34:21.581Z,13.03
2023-03-19T22:36:50.467Z,12.10
2023-03-19T22:39:18.897Z,11.97
2023-03-19T22:41:48.977Z,12.43
2023-03-19T22:44:24.691Z,13.23
2023-03-19T22:46:53.510Z,10.93
2023-03-19T22:49:21.997Z,13.07
2023-03-19T22:51:51.743Z,12.93
2023-03-19T22:54:20.152Z,13.53
2023-03-19T22:56:48.728Z,15.00
2023-03-19T22:59:18.697Z,12.73
2023-03-19T23:01:48.106Z,12.13
2023-03-19T23:04:20.239Z,13.07
2023-03-19T23:06:49.077Z,10.93
2023-03-19T23:09:20.010Z,11.63
2023-03-19T23:11:49.433Z,9.97
2023-03-19T23:14:29.024Z,11.83
2023-03-19T23:19:29.950Z,15.63
2023-03-19T23:21:58.945Z,19.33
2023-03-19T23:24:27.891Z,17.03
2023-03-19T23:26:57.807Z,17.60
2023-03-19T23:29:30.512Z,16.67
2023-03-19T23:31:58.965Z,14.63
2023-03-19T23:34:28.637Z,15.10
2023-03-19T23:36:57.947Z,13.43
2023-03-19T23:39:26.807Z,11.00
2023-03-19T23:41:58.311Z,13.37
2023-03-19T23:44:29.187Z,14.20
2023-03-19T23:47:01.065Z,12.63
2023-03-19T23:49:32.226Z,12.43
2023-03-19T23:52:01.862Z,12.17
2023-03-19T23:54:32.127Z,12.00
2023-03-19T23:57:02.335Z,10.97
2023-03-19T23:59:34.665Z,11.93
